Archival Weather

Chicago O'Hare International

Chicago, Illinois (KORD)

Report from: Saturday, March 18, 2023 5:51 AM CDT
Current time: Saturday, March 2, 2024 4:38 AM CST

Current weather – Weather history – Daily summaries
Weather forecast

Temperature-10.0°C (14.0°F)
Wind chill-18.6°C (-1.4°F)
Dew point-15.6°C (3.9°F)
Winds 13 kts (6.7 m/s, 15 mph) West-Northwest (290°)
Wind gusts 26 kts (13.4 m/s, 29.9 mph)
Peak wind 26 kts (13.4 m/s, 29.9 mph) Northwest (310°) at 10:39
Visibility10 mi. (16.1 km)
Clouds Ceiling: Broken clouds 3,000 ft. (914 m)
Altimeter29.92 in.Hg (1013 mB)
PrecipitiationTrace
Precip. events Snow began 10:01 AM
Snow ended 10:25 AM
Relative humidity63 %
Density altitude-3,118 ft. (-950 m)
Sea-level pressure101.4 kPa (1014 mB, 29.94 in.Hg)
Remarks Automated weather observing station with precipitation discriminator
Flight conditions Visual Meteorological Conditions
Raw dataKORD 181051Z 29013G26KT 10SM BKN030 M10/M16 A2992 RMK AO2 PK WND 31026/1039 SNB01E25 SLP140 P0000 T11001156
An error has occurred. This application may no longer respond until reloaded. Reload 🗙